createdAt,value
2022-07-29T00:00:13.475Z,17.00
2022-07-29T00:02:45.622Z,16.96
2022-07-29T00:05:17.984Z,16.99
2022-07-29T00:07:49.967Z,16.93
2022-07-29T00:10:22.228Z,16.93
2022-07-29T00:12:54.253Z,16.86
2022-07-29T00:15:27.560Z,16.85
2022-07-29T00:17:59.584Z,16.79
2022-07-29T00:20:31.591Z,16.70
2022-07-29T00:23:03.615Z,16.73
2022-07-29T00:25:35.654Z,16.74
2022-07-29T00:28:07.636Z,16.74
2022-07-29T00:30:39.665Z,16.74
2022-07-29T00:33:11.641Z,16.68
2022-07-29T00:35:46.173Z,16.74
2022-07-29T00:38:21.194Z,16.74
2022-07-29T00:40:53.566Z,16.76
2022-07-29T00:43:25.694Z,16.77
2022-07-29T00:45:57.659Z,16.77
2022-07-29T00:48:29.683Z,16.75
2022-07-29T00:51:05.011Z,16.71
2022-07-29T00:53:37.883Z,16.71
2022-07-29T00:56:09.848Z,16.69
2022-07-29T00:58:41.985Z,16.70
2022-07-29T01:01:14.095Z,16.67
2022-07-29T01:03:46.133Z,16.69
2022-07-29T01:06:19.554Z,16.74
2022-07-29T01:08:52.437Z,16.74
2022-07-29T01:11:24.879Z,16.76
2022-07-29T01:13:57.519Z,16.75
2022-07-29T01:16:38.069Z,16.72
2022-07-29T01:19:58.438Z,16.69
2022-07-29T01:23:00.889Z,16.68
2022-07-29T01:26:12.078Z,16.67
2022-07-29T01:29:07.467Z,16.68
2022-07-29T01:32:22.558Z,16.67
2022-07-29T01:35:21.026Z,16.64
2022-07-29T01:38:08.285Z,16.59
2022-07-29T01:40:50.843Z,16.56
2022-07-29T01:43:31.611Z,16.54
2022-07-29T01:46:08.393Z,16.54
2022-07-29T01:48:47.422Z,16.50
2022-07-29T01:51:28.304Z,16.49
2022-07-29T01:54:11.817Z,16.54
2022-07-29T01:56:46.558Z,16.48
2022-07-29T01:59:20.166Z,16.48
2022-07-29T02:01:56.424Z,16.49
2022-07-29T02:04:30.688Z,16.45
2022-07-29T02:07:07.345Z,16.42
2022-07-29T02:09:40.734Z,16.38
2022-07-29T02:12:14.513Z,16.43
2022-07-29T02:14:51.877Z,16.44
2022-07-29T02:17:45.106Z,16.45
2022-07-29T02:20:18.001Z,16.47
2022-07-29T02:22:53.384Z,16.48
2022-07-29T02:25:37.309Z,16.47
2022-07-29T02:28:10.923Z,16.43
2022-07-29T02:30:45.145Z,16.46
2022-07-29T02:33:19.734Z,16.44
2022-07-29T02:35:52.221Z,16.45
2022-07-29T02:38:45.734Z,16.51
2022-07-29T02:41:56.877Z,16.52
2022-07-29T02:44:32.723Z,16.51
2022-07-29T02:47:41.348Z,16.53
2022-07-29T02:50:23.715Z,16.54
2022-07-29T02:53:02.451Z,16.49
2022-07-29T02:55:49.264Z,16.52
2022-07-29T02:59:09.273Z,16.51
2022-07-29T03:01:44.817Z,16.53
2022-07-29T03:04:20.630Z,16.52
2022-07-29T03:06:54.498Z,16.50
2022-07-29T03:09:29.183Z,16.51
2022-07-29T03:12:05.097Z,16.51
2022-07-29T03:14:38.164Z,16.52
2022-07-29T03:17:11.051Z,16.53
2022-07-29T03:19:43.548Z,16.55
2022-07-29T03:22:16.058Z,16.52
2022-07-29T03:24:51.205Z,16.55
2022-07-29T03:27:23.279Z,16.55
2022-07-29T03:29:55.242Z,16.50
2022-07-29T03:32:28.416Z,16.44
2022-07-29T03:35:00.728Z,16.48
2022-07-29T03:37:34.429Z,16.48
2022-07-29T03:40:10.211Z,16.43
2022-07-29T03:42:45.319Z,16.35
2022-07-29T03:45:20.344Z,16.42
2022-07-29T03:48:01.298Z,16.42
2022-07-29T03:50:35.182Z,16.46
2022-07-29T03:53:07.319Z,16.45
2022-07-29T03:55:46.261Z,16.45
2022-07-29T03:58:20.714Z,16.42
2022-07-29T04:00:53.355Z,16.36
2022-07-29T04:03:25.698Z,16.38
2022-07-29T04:06:07.160Z,16.45
2022-07-29T04:08:39.308Z,16.46
2022-07-29T04:11:11.466Z,16.52
2022-07-29T04:13:43.459Z,16.55
2022-07-29T04:16:15.551Z,16.52
2022-07-29T04:18:47.659Z,16.51
2022-07-29T04:21:19.719Z,16.51
2022-07-29T04:23:53.063Z,16.56
2022-07-29T04:26:26.046Z,16.61
2022-07-29T04:28:58.016Z,16.58
2022-07-29T04:31:30.115Z,16.58
2022-07-29T04:34:02.167Z,16.59
2022-07-29T04:36:34.378Z,16.67
2022-07-29T04:39:06.608Z,16.68
2022-07-29T04:41:38.658Z,16.73
2022-07-29T04:44:10.853Z,16.73
2022-07-29T04:46:43.041Z,16.74
2022-07-29T04:49:15.123Z,16.80
2022-07-29T04:51:47.172Z,16.83
2022-07-29T04:54:19.628Z,16.84
2022-07-29T04:56:51.812Z,16.70
2022-07-29T04:59:23.850Z,16.70
2022-07-29T05:01:55.917Z,16.75
2022-07-29T05:04:27.932Z,16.85
2022-07-29T05:06:59.910Z,16.93
2022-07-29T05:09:33.293Z,16.94
2022-07-29T05:12:05.700Z,16.97
2022-07-29T05:14:37.728Z,17.05
2022-07-29T05:17:09.694Z,17.11
2022-07-29T05:19:41.739Z,17.16
2022-07-29T05:22:13.757Z,17.25
2022-07-29T05:24:45.774Z,17.34
2022-07-29T05:27:17.742Z,17.37
2022-07-29T05:29:49.725Z,17.39
2022-07-29T05:32:21.751Z,17.43
2022-07-29T05:34:53.770Z,17.49
2022-07-29T05:37:25.740Z,17.54
2022-07-29T05:39:59.185Z,17.62
2022-07-29T05:42:31.470Z,17.68
2022-07-29T05:45:04.012Z,17.68
2022-07-29T05:47:36.270Z,17.68
2022-07-29T05:50:09.047Z,17.63
2022-07-29T05:52:41.105Z,17.64
2022-07-29T05:55:13.172Z,17.65
2022-07-29T05:57:46.534Z,17.77
2022-07-29T06:00:18.558Z,17.81
2022-07-29T06:02:50.686Z,17.86
2022-07-29T06:05:22.707Z,17.95
2022-07-29T06:07:54.798Z,18.02
2022-07-29T06:10:27.899Z,18.00
2022-07-29T06:13:00.025Z,17.96
2022-07-29T06:15:31.989Z,17.98
2022-07-29T06:18:04.309Z,18.00
2022-07-29T06:20:36.738Z,18.07
2022-07-29T06:23:09.048Z,18.02
2022-07-29T06:25:42.129Z,18.00
2022-07-29T06:28:14.433Z,18.08
2022-07-29T06:30:46.443Z,18.16
2022-07-29T06:33:20.087Z,18.22
2022-07-29T06:35:54.985Z,18.28
2022-07-29T06:38:31.006Z,18.40
2022-07-29T06:41:05.978Z,18.46
2022-07-29T06:43:52.020Z,18.51
2022-07-29T06:46:24.828Z,18.60
2022-07-29T06:48:56.876Z,18.63
2022-07-29T06:51:28.939Z,18.78
2022-07-29T06:54:03.301Z,18.80
2022-07-29T06:56:45.025Z,18.84
2022-07-29T06:59:17.081Z,18.97
2022-07-29T07:01:49.097Z,19.11
2022-07-29T07:04:21.392Z,19.16
2022-07-29T07:06:53.509Z,19.14
2022-07-29T07:09:25.480Z,19.16
2022-07-29T07:12:12.213Z,19.03
2022-07-29T07:14:45.682Z,19.04
2022-07-29T07:17:17.660Z,19.06
2022-07-29T07:19:49.619Z,19.06
2022-07-29T07:22:21.608Z,19.03
2022-07-29T07:24:53.604Z,19.13
2022-07-29T07:27:25.535Z,19.17
2022-07-29T07:29:57.825Z,19.25
2022-07-29T07:32:30.079Z,19.24
2022-07-29T07:35:02.338Z,19.41
2022-07-29T07:37:34.881Z,19.54
2022-07-29T07:40:08.337Z,19.67
2022-07-29T07:42:41.637Z,19.84
2022-07-29T07:45:16.098Z,19.98
2022-07-29T07:47:48.693Z,20.10
2022-07-29T07:50:20.688Z,20.21
2022-07-29T07:52:56.114Z,20.42
2022-07-29T07:55:28.244Z,20.60
2022-07-29T07:58:00.220Z,20.87
2022-07-29T08:00:33.409Z,21.02
2022-07-29T08:03:05.805Z,21.18
2022-07-29T08:05:49.376Z,21.35
2022-07-29T08:08:21.992Z,21.60
2022-07-29T08:10:54.100Z,21.93
2022-07-29T08:13:31.551Z,22.04
2022-07-29T08:16:12.508Z,22.60
2022-07-29T08:18:46.565Z,22.53
2022-07-29T08:21:18.923Z,22.88
2022-07-29T08:23:59.905Z,23.69
2022-07-29T08:26:32.849Z,24.71
2022-07-29T08:29:04.898Z,25.37
2022-07-29T08:31:41.022Z,26.07
2022-07-29T08:34:14.159Z,26.28
2022-07-29T08:36:46.217Z,25.99
2022-07-29T08:39:24.986Z,25.49
2022-07-29T08:41:57.773Z,24.84
2022-07-29T08:44:31.001Z,25.07
2022-07-29T08:47:03.522Z,25.51
2022-07-29T08:49:37.005Z,25.90
2022-07-29T08:52:12.505Z,26.39
2022-07-29T08:54:45.413Z,27.03
2022-07-29T08:57:18.535Z,27.23
2022-07-29T08:59:55.398Z,28.04
2022-07-29T09:02:34.727Z,28.49
2022-07-29T09:05:08.844Z,28.82
2022-07-29T09:07:44.322Z,29.01
2022-07-29T09:10:16.414Z,28.93
2022-07-29T09:12:49.933Z,28.90
2022-07-29T09:15:22.138Z,28.98
2022-07-29T09:17:54.283Z,28.68
2022-07-29T09:20:26.719Z,28.48
2022-07-29T09:23:09.027Z,28.40
2022-07-29T09:25:42.718Z,28.07
2022-07-29T09:28:19.906Z,27.40
2022-07-29T09:30:57.515Z,26.95
2022-07-29T09:33:40.375Z,27.09
2022-07-29T09:36:12.945Z,27.40
2022-07-29T09:39:00.185Z,27.50
2022-07-29T09:41:50.432Z,27.84
2022-07-29T09:44:23.840Z,27.97
2022-07-29T09:47:08.224Z,27.78
2022-07-29T09:49:59.407Z,27.69
2022-07-29T09:52:31.932Z,27.69
2022-07-29T09:55:13.785Z,27.61
2022-07-29T09:57:50.573Z,27.58
2022-07-29T10:00:24.193Z,27.43
2022-07-29T10:03:02.606Z,27.48
2022-07-29T10:05:36.180Z,27.33
2022-07-29T10:08:10.685Z,27.23
2022-07-29T10:10:44.005Z,27.42
2022-07-29T10:13:16.831Z,27.50
2022-07-29T10:15:51.929Z,27.41
2022-07-29T10:18:24.125Z,27.46
2022-07-29T10:20:57.029Z,27.19
2022-07-29T10:23:30.976Z,26.94
2022-07-29T10:26:20.637Z,26.74
2022-07-29T10:28:52.628Z,26.68
2022-07-29T10:31:40.839Z,26.79
2022-07-29T10:34:29.310Z,26.75
2022-07-29T10:37:45.784Z,26.92
2022-07-29T10:40:42.302Z,27.20
2022-07-29T10:43:25.626Z,27.61
2022-07-29T10:46:00.799Z,28.01
2022-07-29T10:48:32.855Z,28.36
2022-07-29T10:51:06.928Z,28.96
2022-07-29T10:56:44.937Z,30.72
2022-07-29T10:59:22.807Z,31.63
2022-07-29T11:02:10.869Z,32.47
2022-07-29T11:04:48.643Z,32.96
2022-07-29T11:07:23.278Z,33.48
2022-07-29T11:10:14.077Z,33.76
2022-07-29T11:12:48.492Z,34.27
2022-07-29T11:15:24.988Z,34.36
2022-07-29T11:18:01.299Z,33.82
2022-07-29T11:20:50.116Z,33.47
2022-07-29T11:23:33.858Z,34.01
2022-07-29T11:29:26.056Z,34.06
2022-07-29T11:32:18.145Z,34.39
2022-07-29T11:35:37.008Z,33.62
2022-07-29T11:38:31.777Z,33.21
2022-07-29T11:41:26.066Z,32.52
2022-07-29T11:44:01.574Z,32.26
2022-07-29T11:46:54.107Z,32.08
2022-07-29T11:49:32.582Z,31.94
2022-07-29T11:52:05.852Z,31.46
2022-07-29T11:54:57.971Z,31.42
2022-07-29T11:57:37.232Z,31.75
2022-07-29T12:00:12.100Z,32.28
2022-07-29T12:02:48.483Z,32.73
2022-07-29T12:05:51.917Z,32.19
2022-07-29T12:08:26.935Z,31.25
2022-07-29T12:10:59.082Z,30.75
2022-07-29T12:13:40.089Z,30.15
2022-07-29T12:16:14.702Z,29.58
2022-07-29T12:19:00.624Z,29.26
2022-07-29T12:21:56.869Z,29.16
2022-07-29T12:24:45.434Z,29.17
2022-07-29T12:27:19.365Z,29.27
2022-07-29T12:30:07.434Z,29.30
2022-07-29T12:32:48.374Z,29.30
2022-07-29T12:35:22.304Z,29.08
2022-07-29T12:37:55.852Z,28.83
2022-07-29T12:40:27.995Z,28.65
2022-07-29T12:43:12.992Z,28.51
2022-07-29T12:45:49.627Z,28.37
2022-07-29T12:48:38.995Z,28.28
2022-07-29T12:51:15.403Z,28.35
2022-07-29T12:54:24.162Z,28.25
2022-07-29T12:57:01.179Z,28.23
2022-07-29T12:59:33.457Z,28.29
2022-07-29T13:02:06.093Z,28.19
2022-07-29T13:04:38.137Z,28.04
2022-07-29T13:07:10.474Z,28.06
2022-07-29T13:09:45.457Z,28.09
2022-07-29T13:12:17.447Z,28.07
2022-07-29T13:14:51.233Z,28.17
2022-07-29T13:17:24.384Z,28.27
2022-07-29T13:20:13.632Z,28.08
2022-07-29T13:22:49.339Z,27.96
2022-07-29T13:25:33.220Z,27.91
2022-07-29T13:28:05.688Z,27.76
2022-07-29T13:30:38.779Z,27.72
2022-07-29T13:33:16.756Z,27.83
2022-07-29T13:35:48.979Z,27.81
2022-07-29T13:38:21.004Z,27.83
2022-07-29T13:40:53.129Z,27.84
2022-07-29T13:43:25.355Z,27.91
2022-07-29T13:45:57.501Z,27.95
2022-07-29T13:48:29.475Z,27.82
2022-07-29T13:51:01.953Z,27.68
2022-07-29T13:53:34.053Z,27.62
2022-07-29T13:56:07.052Z,27.42
2022-07-29T13:58:39.143Z,27.29
2022-07-29T14:01:12.239Z,27.22
2022-07-29T14:03:45.764Z,27.25
2022-07-29T14:06:18.284Z,27.36
2022-07-29T14:08:54.367Z,27.55
2022-07-29T14:11:26.435Z,27.64
2022-07-29T14:13:58.465Z,27.81
2022-07-29T14:16:30.524Z,27.84
2022-07-29T14:19:02.914Z,28.30
2022-07-29T14:21:35.718Z,28.45
2022-07-29T14:24:17.931Z,28.45
2022-07-29T14:26:54.984Z,28.27
2022-07-29T14:29:37.455Z,28.17
2022-07-29T14:32:12.553Z,28.04
2022-07-29T14:34:44.628Z,27.89
2022-07-29T14:37:16.813Z,27.75
2022-07-29T14:39:48.781Z,27.80
2022-07-29T14:42:20.848Z,27.83
2022-07-29T14:44:52.826Z,27.81
2022-07-29T14:47:25.153Z,27.74
2022-07-29T14:49:57.206Z,27.59
2022-07-29T14:52:29.213Z,27.39
2022-07-29T14:55:01.273Z,27.25
2022-07-29T14:57:33.306Z,27.06
2022-07-29T15:00:10.021Z,26.92
2022-07-29T15:03:00.860Z,26.73
2022-07-29T15:05:33.719Z,26.56
2022-07-29T15:08:05.806Z,26.45
2022-07-29T15:10:37.875Z,26.38
2022-07-29T15:13:09.859Z,26.34
2022-07-29T15:15:42.373Z,26.31
2022-07-29T15:18:14.413Z,26.24
2022-07-29T15:20:47.429Z,26.26
2022-07-29T15:23:19.500Z,26.30
2022-07-29T15:25:51.454Z,26.25
2022-07-29T15:28:23.512Z,26.20
2022-07-29T15:30:55.626Z,26.14
2022-07-29T15:33:28.948Z,26.13
2022-07-29T15:36:00.905Z,26.12
2022-07-29T15:38:32.860Z,26.10
2022-07-29T15:41:04.960Z,26.08
2022-07-29T15:43:36.947Z,25.99
2022-07-29T15:46:27.368Z,25.99
2022-07-29T15:48:59.608Z,25.94
2022-07-29T15:51:33.458Z,25.95
2022-07-29T15:54:06.304Z,25.97
2022-07-29T15:56:38.814Z,25.96
2022-07-29T15:59:10.785Z,25.96
2022-07-29T16:01:54.798Z,25.97
2022-07-29T16:04:27.758Z,25.90
2022-07-29T16:07:00.206Z,25.95
2022-07-29T16:09:32.590Z,25.92
2022-07-29T16:12:14.985Z,25.95
2022-07-29T16:14:49.622Z,25.86
2022-07-29T16:17:21.725Z,25.88
2022-07-29T16:19:54.445Z,25.79
2022-07-29T16:22:26.446Z,25.80
2022-07-29T16:24:58.448Z,25.75
2022-07-29T16:27:34.297Z,25.71
2022-07-29T16:30:10.495Z,25.65
2022-07-29T16:32:42.452Z,25.58
2022-07-29T16:35:14.568Z,25.54
2022-07-29T16:37:46.536Z,25.50
2022-07-29T16:40:18.576Z,25.37
2022-07-29T16:42:50.746Z,25.37
2022-07-29T16:45:22.825Z,25.27
2022-07-29T16:48:00.188Z,25.13
2022-07-29T16:50:33.404Z,25.08
2022-07-29T16:53:05.355Z,24.95
2022-07-29T16:55:37.536Z,24.96
2022-07-29T16:58:10.143Z,24.93
2022-07-29T17:00:42.219Z,24.87
2022-07-29T17:03:14.208Z,24.75
2022-07-29T17:05:52.714Z,24.67
2022-07-29T17:08:26.151Z,24.47
2022-07-29T17:10:58.127Z,24.37
2022-07-29T17:13:30.076Z,24.24
2022-07-29T17:16:02.187Z,24.09
2022-07-29T17:18:34.167Z,23.99
2022-07-29T17:21:06.261Z,23.86
2022-07-29T17:23:38.207Z,23.77
2022-07-29T17:26:10.262Z,23.67
2022-07-29T17:28:42.669Z,23.57
2022-07-29T17:31:15.164Z,23.46
2022-07-29T17:33:47.233Z,23.35
2022-07-29T17:36:25.102Z,23.30
2022-07-29T17:39:08.593Z,23.25
2022-07-29T17:41:41.131Z,23.21
2022-07-29T17:44:13.630Z,23.19
2022-07-29T17:46:45.679Z,23.13
2022-07-29T17:49:17.748Z,23.12
2022-07-29T17:51:50.222Z,23.13
2022-07-29T17:54:22.277Z,23.08
2022-07-29T17:56:58.946Z,23.06
2022-07-29T17:59:31.159Z,23.03
2022-07-29T18:02:03.221Z,23.04
2022-07-29T18:04:35.234Z,23.00
2022-07-29T18:07:07.332Z,23.04
2022-07-29T18:09:42.688Z,23.05
2022-07-29T18:12:14.643Z,23.06
2022-07-29T18:14:46.730Z,23.01
2022-07-29T18:17:18.752Z,22.98
2022-07-29T18:19:51.527Z,22.96
2022-07-29T18:22:23.626Z,22.99
2022-07-29T18:24:55.605Z,22.90
2022-07-29T18:27:27.681Z,22.86
2022-07-29T18:29:59.684Z,22.84
2022-07-29T18:32:37.042Z,22.79
2022-07-29T18:35:09.604Z,22.83
2022-07-29T18:38:01.866Z,22.84
2022-07-29T18:40:33.621Z,22.86
2022-07-29T18:43:06.947Z,22.88
2022-07-29T18:45:39.564Z,22.86
2022-07-29T18:48:12.633Z,22.85
2022-07-29T18:50:45.327Z,22.88
2022-07-29T18:53:17.543Z,22.83
2022-07-29T18:55:49.502Z,22.81
2022-07-29T18:58:21.737Z,22.78
2022-07-29T19:00:53.816Z,22.76
2022-07-29T19:03:25.864Z,22.74
2022-07-29T19:05:57.853Z,22.68
2022-07-29T19:08:29.815Z,22.66
2022-07-29T19:11:01.763Z,22.66
2022-07-29T19:13:36.936Z,22.67
2022-07-29T19:16:12.074Z,22.63
2022-07-29T19:18:44.797Z,22.61
2022-07-29T19:21:17.387Z,22.57
2022-07-29T19:24:00.393Z,22.59
2022-07-29T19:26:46.504Z,22.48
2022-07-29T19:29:18.816Z,22.41
2022-07-29T19:31:51.049Z,22.39
2022-07-29T19:34:23.084Z,22.39
2022-07-29T19:36:55.066Z,22.36
2022-07-29T19:39:34.950Z,22.38
2022-07-29T19:42:08.499Z,22.41
2022-07-29T19:44:40.510Z,22.45
2022-07-29T19:47:12.477Z,22.43
2022-07-29T19:49:49.452Z,22.32
2022-07-29T19:52:21.520Z,22.35
2022-07-29T19:54:53.703Z,22.32
2022-07-29T19:57:25.677Z,22.32
2022-07-29T19:59:58.380Z,22.33
2022-07-29T20:02:30.410Z,22.35
2022-07-29T20:05:02.762Z,22.29
2022-07-29T20:07:34.728Z,22.25
2022-07-29T20:10:09.267Z,22.19
2022-07-29T20:12:42.740Z,22.15
2022-07-29T20:15:16.586Z,22.16
2022-07-29T20:17:48.696Z,22.11
2022-07-29T20:20:22.356Z,22.14
2022-07-29T20:22:54.781Z,22.13
2022-07-29T20:25:26.810Z,22.15
2022-07-29T20:27:58.765Z,22.08
2022-07-29T20:30:30.768Z,22.08
2022-07-29T20:33:02.986Z,22.07
2022-07-29T20:35:35.427Z,22.06
2022-07-29T20:38:07.413Z,22.02
2022-07-29T20:40:39.590Z,22.02
2022-07-29T20:43:11.757Z,22.02
2022-07-29T20:45:43.766Z,22.01
2022-07-29T20:48:15.719Z,21.97
2022-07-29T20:50:48.910Z,21.98
2022-07-29T20:53:21.067Z,21.89
2022-07-29T20:55:53.028Z,21.90
2022-07-29T20:58:25.010Z,21.89
2022-07-29T21:00:56.981Z,21.89
2022-07-29T21:03:28.995Z,21.89
2022-07-29T21:06:01.024Z,21.87
2022-07-29T21:08:33.094Z,21.87
2022-07-29T21:11:05.651Z,21.88
2022-07-29T21:13:41.094Z,21.79
2022-07-29T21:16:14.805Z,21.74
2022-07-29T21:18:47.797Z,21.74
2022-07-29T21:21:19.943Z,21.71
2022-07-29T21:23:52.682Z,21.73
2022-07-29T21:26:24.706Z,21.75
2022-07-29T21:28:56.659Z,21.76
2022-07-29T21:31:28.749Z,21.77
2022-07-29T21:34:00.686Z,21.77
2022-07-29T21:36:48.947Z,21.73
2022-07-29T21:39:21.061Z,21.72
2022-07-29T21:41:53.089Z,21.71
2022-07-29T21:44:25.059Z,21.71
2022-07-29T21:46:57.272Z,21.71
2022-07-29T21:49:29.536Z,21.71
2022-07-29T21:52:01.721Z,21.67
2022-07-29T21:54:33.765Z,21.68
2022-07-29T21:57:06.037Z,21.66
2022-07-29T21:59:38.258Z,21.63
2022-07-29T22:02:10.257Z,21.62
2022-07-29T22:04:42.247Z,21.65
2022-07-29T22:07:14.347Z,21.65
2022-07-29T22:09:46.329Z,21.62
2022-07-29T22:12:18.304Z,21.57
2022-07-29T22:14:50.260Z,21.49
2022-07-29T22:17:23.466Z,21.42
2022-07-29T22:19:55.580Z,21.44
2022-07-29T22:22:27.900Z,21.41
2022-07-29T22:24:59.849Z,21.40
2022-07-29T22:27:31.867Z,21.34
2022-07-29T22:30:06.980Z,21.36
2022-07-29T22:32:39.041Z,21.34
2022-07-29T22:35:11.661Z,21.29
2022-07-29T22:37:43.677Z,21.22
2022-07-29T22:40:15.687Z,21.24
2022-07-29T22:42:47.762Z,21.25
2022-07-29T22:45:19.900Z,21.19
2022-07-29T22:47:57.490Z,21.17
2022-07-29T22:50:31.480Z,21.17
2022-07-29T22:53:03.505Z,21.17
2022-07-29T22:55:35.449Z,21.13
2022-07-29T22:58:07.434Z,21.08
2022-07-29T23:00:39.451Z,21.02
2022-07-29T23:03:11.410Z,20.99
2022-07-29T23:05:43.375Z,20.99
2022-07-29T23:08:15.372Z,21.00
2022-07-29T23:10:47.502Z,21.00
2022-07-29T23:13:19.495Z,20.95
2022-07-29T23:15:51.455Z,20.97
2022-07-29T23:18:23.487Z,20.99
2022-07-29T23:20:55.546Z,21.00
2022-07-29T23:23:28.465Z,20.99
2022-07-29T23:26:04.613Z,20.94
2022-07-29T23:28:36.627Z,20.93
2022-07-29T23:31:08.656Z,20.92
2022-07-29T23:33:43.517Z,20.91
2022-07-29T23:36:15.553Z,20.86
2022-07-29T23:38:48.384Z,20.87
2022-07-29T23:41:21.531Z,20.85
2022-07-29T23:43:53.543Z,20.80
2022-07-29T23:46:25.543Z,20.83
2022-07-29T23:48:57.570Z,20.81
2022-07-29T23:51:30.402Z,20.81
2022-07-29T23:54:02.415Z,20.79
2022-07-29T23:56:34.423Z,20.72
2022-07-29T23:59:06.485Z,20.71
